sensor_id;sensor_type;location;lat;lon;timestamp;P1;durP1;ratioP1;P2;durP2;ratioP2
7239;SDS011;3661;53.288;10.458;2023-09-08T00:00:35;1907.90;;;999.90;;
7239;SDS011;3661;53.288;10.458;2023-09-08T00:03:09;1944.53;;;999.90;;
7239;SDS011;3661;53.288;10.458;2023-09-08T00:05:41;1915.00;;;999.90;;
7239;SDS011;3661;53.288;10.458;2023-09-08T00:08:13;1916.80;;;999.90;;
7239;SDS011;3661;53.288;10.458;2023-09-08T00:10:49;1935.38;;;999.90;;
7239;SDS011;3661;53.288;10.458;2023-09-08T00:13:21;1926.28;;;999.90;;
7239;SDS011;3661;53.288;10.458;2023-09-08T00:15:54;1912.20;;;999.90;;
7239;SDS011;3661;53.288;10.458;2023-09-08T00:18:27;1920.22;;;999.90;;
7239;SDS011;3661;53.288;10.458;2023-09-08T00:21:02;1901.95;;;999.90;;
7239;SDS011;3661;53.288;10.458;2023-09-08T00:23:35;1905.65;;;999.90;;
7239;SDS011;3661;53.288;10.458;2023-09-08T00:26:08;1901.43;;;999.90;;
7239;SDS011;3661;53.288;10.458;2023-09-08T00:28:44;1891.43;;;999.90;;
7239;SDS011;3661;53.288;10.458;2023-09-08T00:31:17;1906.90;;;999.90;;
7239;SDS011;3661;53.288;10.458;2023-09-08T00:33:50;1872.28;;;999.90;;
7239;SDS011;3661;53.288;10.458;2023-09-08T00:36:23;1900.65;;;999.90;;
7239;SDS011;3661;53.288;10.458;2023-09-08T00:38:58;1883.25;;;999.90;;
7239;SDS011;3661;53.288;10.458;2023-09-08T00:41:34;1888.80;;;999.90;;
7239;SDS011;3661;53.288;10.458;2023-09-08T00:44:07;1883.47;;;999.90;;
7239;SDS011;3661;53.288;10.458;2023-09-08T00:46:41;1886.75;;;999.90;;
7239;SDS011;3661;53.288;10.458;2023-09-08T00:49:13;1874.20;;;999.90;;
7239;SDS011;3661;53.288;10.458;2023-09-08T00:51:45;1871.35;;;999.90;;
7239;SDS011;3661;53.288;10.458;2023-09-08T00:54:22;1852.22;;;999.90;;
7239;SDS011;3661;53.288;10.458;2023-09-08T00:56:57;1871.50;;;999.90;;
7239;SDS011;3661;53.288;10.458;2023-09-08T00:59:32;1861.38;;;999.90;;
7239;SDS011;3661;53.288;10.458;2023-09-08T01:02:07;1871.75;;;999.90;;
7239;SDS011;3661;53.288;10.458;2023-09-08T01:04:39;1836.13;;;999.90;;
7239;SDS011;3661;53.288;10.458;2023-09-08T01:07:12;1849.28;;;999.90;;
7239;SDS011;3661;53.288;10.458;2023-09-08T01:09:45;1839.25;;;999.90;;
7239;SDS011;3661;53.288;10.458;2023-09-08T01:12:20;1837.55;;;999.90;;
7239;SDS011;3661;53.288;10.458;2023-09-08T01:14:57;1828.40;;;999.90;;
7239;SDS011;3661;53.288;10.458;2023-09-08T01:17:29;1829.38;;;999.90;;
7239;SDS011;3661;53.288;10.458;2023-09-08T01:20:04;1825.22;;;999.90;;
7239;SDS011;3661;53.288;10.458;2023-09-08T01:22:45;1844.32;;;999.90;;
7239;SDS011;3661;53.288;10.458;2023-09-08T01:25:30;1823.47;;;999.90;;
7239;SDS011;3661;53.288;10.458;2023-09-08T01:28:04;1816.53;;;999.90;;
7239;SDS011;3661;53.288;10.458;2023-09-08T01:30:37;1833.85;;;999.90;;
7239;SDS011;3661;53.288;10.458;2023-09-08T01:33:11;1813.70;;;999.90;;
7239;SDS011;3661;53.288;10.458;2023-09-08T01:35:43;1823.37;;;999.90;;
7239;SDS011;3661;53.288;10.458;2023-09-08T01:38:16;1832.22;;;999.90;;
7239;SDS011;3661;53.288;10.458;2023-09-08T01:40:57;1817.47;;;999.90;;
7239;SDS011;3661;53.288;10.458;2023-09-08T01:43:30;1809.75;;;999.90;;
7239;SDS011;3661;53.288;10.458;2023-09-08T01:46:02;1809.07;;;999.90;;
7239;SDS011;3661;53.288;10.458;2023-09-08T01:48:36;1823.22;;;999.90;;
7239;SDS011;3661;53.288;10.458;2023-09-08T01:51:08;1814.85;;;999.90;;
7239;SDS011;3661;53.288;10.458;2023-09-08T01:53:42;1798.63;;;999.90;;
7239;SDS011;3661;53.288;10.458;2023-09-08T01:56:16;1795.82;;;999.90;;
7239;SDS011;3661;53.288;10.458;2023-09-08T01:58:48;1794.75;;;999.90;;
7239;SDS011;3661;53.288;10.458;2023-09-08T02:01:21;1801.55;;;999.90;;
7239;SDS011;3661;53.288;10.458;2023-09-08T02:03:53;1790.47;;;999.90;;
7239;SDS011;3661;53.288;10.458;2023-09-08T02:06:25;1783.15;;;999.90;;
7239;SDS011;3661;53.288;10.458;2023-09-08T02:08:57;1786.57;;;999.90;;
7239;SDS011;3661;53.288;10.458;2023-09-08T02:11:35;1779.80;;;999.90;;
7239;SDS011;3661;53.288;10.458;2023-09-08T02:14:07;1777.55;;;999.90;;
7239;SDS011;3661;53.288;10.458;2023-09-08T02:16:41;1766.28;;;999.90;;
7239;SDS011;3661;53.288;10.458;2023-09-08T02:19:15;1778.43;;;999.90;;
7239;SDS011;3661;53.288;10.458;2023-09-08T02:21:48;1763.13;;;999.90;;
7239;SDS011;3661;53.288;10.458;2023-09-08T02:24:22;1771.75;;;999.90;;
7239;SDS011;3661;53.288;10.458;2023-09-08T02:26:55;1776.03;;;999.90;;
7239;SDS011;3661;53.288;10.458;2023-09-08T02:29:28;1761.20;;;999.90;;
7239;SDS011;3661;53.288;10.458;2023-09-08T02:32:00;1773.10;;;999.90;;
7239;SDS011;3661;53.288;10.458;2023-09-08T02:34:35;1759.22;;;999.90;;
7239;SDS011;3661;53.288;10.458;2023-09-08T02:37:09;1749.15;;;999.90;;
7239;SDS011;3661;53.288;10.458;2023-09-08T02:39:41;1728.28;;;999.90;;
7239;SDS011;3661;53.288;10.458;2023-09-08T02:42:15;1755.22;;;999.90;;
7239;SDS011;3661;53.288;10.458;2023-09-08T02:44:49;1756.80;;;999.90;;
7239;SDS011;3661;53.288;10.458;2023-09-08T02:47:21;1744.07;;;999.90;;
7239;SDS011;3661;53.288;10.458;2023-09-08T02:49:53;1738.97;;;999.90;;
7239;SDS011;3661;53.288;10.458;2023-09-08T02:52:28;1733.75;;;999.90;;
7239;SDS011;3661;53.288;10.458;2023-09-08T02:55:01;1732.55;;;999.90;;
7239;SDS011;3661;53.288;10.458;2023-09-08T02:57:38;1737.35;;;999.90;;
7239;SDS011;3661;53.288;10.458;2023-09-08T03:00:11;1724.05;;;999.90;;
7239;SDS011;3661;53.288;10.458;2023-09-08T03:02:44;1739.47;;;999.90;;
7239;SDS011;3661;53.288;10.458;2023-09-08T03:05:17;1742.28;;;999.90;;
7239;SDS011;3661;53.288;10.458;2023-09-08T03:07:50;1747.38;;;999.90;;
7239;SDS011;3661;53.288;10.458;2023-09-08T03:10:22;1747.10;;;999.90;;
7239;SDS011;3661;53.288;10.458;2023-09-08T03:12:57;1737.20;;;999.90;;
7239;SDS011;3661;53.288;10.458;2023-09-08T03:15:30;1726.25;;;999.90;;
7239;SDS011;3661;53.288;10.458;2023-09-08T03:18:02;1731.78;;;999.90;;
7239;SDS011;3661;53.288;10.458;2023-09-08T03:20:37;1721.03;;;999.90;;
7239;SDS011;3661;53.288;10.458;2023-09-08T03:23:10;1723.57;;;999.90;;
7239;SDS011;3661;53.288;10.458;2023-09-08T03:25:51;1725.22;;;999.90;;
7239;SDS011;3661;53.288;10.458;2023-09-08T03:28:25;1703.45;;;999.90;;
7239;SDS011;3661;53.288;10.458;2023-09-08T03:31:00;1713.15;;;999.90;;
7239;SDS011;3661;53.288;10.458;2023-09-08T03:33:35;1720.30;;;999.90;;
7239;SDS011;3661;53.288;10.458;2023-09-08T03:36:09;1698.72;;;999.90;;
7239;SDS011;3661;53.288;10.458;2023-09-08T03:38:42;1699.97;;;999.90;;
7239;SDS011;3661;53.288;10.458;2023-09-08T03:41:17;1695.53;;;999.90;;
7239;SDS011;3661;53.288;10.458;2023-09-08T03:43:51;1686.90;;;999.90;;
7239;SDS011;3661;53.288;10.458;2023-09-08T03:46:23;1699.53;;;999.90;;
7239;SDS011;3661;53.288;10.458;2023-09-08T03:48:55;1705.00;;;999.90;;
7239;SDS011;3661;53.288;10.458;2023-09-08T03:51:30;1681.60;;;999.90;;
7239;SDS011;3661;53.288;10.458;2023-09-08T03:54:03;1688.88;;;999.90;;
7239;SDS011;3661;53.288;10.458;2023-09-08T03:56:36;1700.88;;;999.90;;
7239;SDS011;3661;53.288;10.458;2023-09-08T03:59:09;1698.45;;;999.90;;
7239;SDS011;3661;53.288;10.458;2023-09-08T04:01:42;1693.35;;;999.90;;
7239;SDS011;3661;53.288;10.458;2023-09-08T04:04:15;1686.07;;;999.90;;
7239;SDS011;3661;53.288;10.458;2023-09-08T04:06:48;1682.50;;;999.90;;
7239;SDS011;3661;53.288;10.458;2023-09-08T04:09:20;1671.43;;;999.90;;
7239;SDS011;3661;53.288;10.458;2023-09-08T04:11:52;1660.50;;;999.90;;
7239;SDS011;3661;53.288;10.458;2023-09-08T04:14:27;1658.18;;;999.90;;
7239;SDS011;3661;53.288;10.458;2023-09-08T04:17:00;1649.38;;;999.90;;
7239;SDS011;3661;53.288;10.458;2023-09-08T04:19:32;1663.25;;;999.90;;
7239;SDS011;3661;53.288;10.458;2023-09-08T04:22:05;1672.70;;;999.90;;
7239;SDS011;3661;53.288;10.458;2023-09-08T04:24:37;1657.00;;;999.90;;
7239;SDS011;3661;53.288;10.458;2023-09-08T04:27:09;1662.22;;;999.90;;
7239;SDS011;3661;53.288;10.458;2023-09-08T04:29:44;1655.22;;;999.90;;
7239;SDS011;3661;53.288;10.458;2023-09-08T04:32:17;1665.90;;;999.90;;
7239;SDS011;3661;53.288;10.458;2023-09-08T04:34:49;1651.22;;;999.90;;
7239;SDS011;3661;53.288;10.458;2023-09-08T04:37:25;1627.57;;;999.90;;
7239;SDS011;3661;53.288;10.458;2023-09-08T04:39:57;1652.22;;;999.90;;
7239;SDS011;3661;53.288;10.458;2023-09-08T04:42:30;1659.28;;;999.90;;
7239;SDS011;3661;53.288;10.458;2023-09-08T04:45:04;1644.63;;;999.90;;
7239;SDS011;3661;53.288;10.458;2023-09-08T04:47:37;1653.00;;;999.90;;
7239;SDS011;3661;53.288;10.458;2023-09-08T04:50:09;1650.78;;;999.90;;
7239;SDS011;3661;53.288;10.458;2023-09-08T04:52:41;1634.55;;;999.90;;
7239;SDS011;3661;53.288;10.458;2023-09-08T04:55:15;1654.60;;;999.90;;
7239;SDS011;3661;53.288;10.458;2023-09-08T04:57:49;1638.20;;;999.90;;
7239;SDS011;3661;53.288;10.458;2023-09-08T05:00:24;1648.43;;;999.90;;
7239;SDS011;3661;53.288;10.458;2023-09-08T05:02:57;1637.20;;;999.90;;
7239;SDS011;3661;53.288;10.458;2023-09-08T05:05:29;1630.30;;;999.90;;
7239;SDS011;3661;53.288;10.458;2023-09-08T05:08:01;1647.70;;;999.90;;
7239;SDS011;3661;53.288;10.458;2023-09-08T05:10:34;1635.43;;;999.90;;
7239;SDS011;3661;53.288;10.458;2023-09-08T05:13:07;1647.32;;;999.90;;
7239;SDS011;3661;53.288;10.458;2023-09-08T05:15:40;1643.43;;;999.90;;
7239;SDS011;3661;53.288;10.458;2023-09-08T05:18:14;1618.70;;;999.90;;
7239;SDS011;3661;53.288;10.458;2023-09-08T05:20:47;1627.57;;;999.90;;
7239;SDS011;3661;53.288;10.458;2023-09-08T05:23:19;1640.93;;;999.90;;
7239;SDS011;3661;53.288;10.458;2023-09-08T05:25:52;1634.70;;;999.90;;
7239;SDS011;3661;53.288;10.458;2023-09-08T05:28:25;1585.85;;;999.90;;
7239;SDS011;3661;53.288;10.458;2023-09-08T05:30:58;1611.55;;;999.90;;
7239;SDS011;3661;53.288;10.458;2023-09-08T05:33:31;1622.22;;;999.90;;
7239;SDS011;3661;53.288;10.458;2023-09-08T05:36:03;1631.70;;;999.90;;
7239;SDS011;3661;53.288;10.458;2023-09-08T05:38:35;1609.70;;;999.90;;
7239;SDS011;3661;53.288;10.458;2023-09-08T05:41:07;1607.38;;;999.90;;
7239;SDS011;3661;53.288;10.458;2023-09-08T05:43:40;1613.90;;;999.90;;
7239;SDS011;3661;53.288;10.458;2023-09-08T05:46:13;1626.32;;;999.90;;
7239;SDS011;3661;53.288;10.458;2023-09-08T05:48:45;1627.20;;;999.90;;
7239;SDS011;3661;53.288;10.458;2023-09-08T05:51:18;1627.50;;;999.90;;
7239;SDS011;3661;53.288;10.458;2023-09-08T05:53:50;1624.97;;;999.90;;
7239;SDS011;3661;53.288;10.458;2023-09-08T05:56:24;1637.45;;;999.90;;
7239;SDS011;3661;53.288;10.458;2023-09-08T05:59:00;1653.72;;;999.90;;
7239;SDS011;3661;53.288;10.458;2023-09-08T06:01:34;1648.38;;;999.90;;
7239;SDS011;3661;53.288;10.458;2023-09-08T06:04:07;1633.70;;;999.90;;
7239;SDS011;3661;53.288;10.458;2023-09-08T06:06:39;1643.73;;;999.90;;
7239;SDS011;3661;53.288;10.458;2023-09-08T06:09:11;1639.35;;;999.90;;
7239;SDS011;3661;53.288;10.458;2023-09-08T06:11:45;1652.07;;;999.90;;
7239;SDS011;3661;53.288;10.458;2023-09-08T06:14:17;1661.28;;;999.90;;
7239;SDS011;3661;53.288;10.458;2023-09-08T06:16:51;1680.60;;;999.90;;
7239;SDS011;3661;53.288;10.458;2023-09-08T06:19:23;1656.97;;;999.90;;
7239;SDS011;3661;53.288;10.458;2023-09-08T06:21:55;1684.45;;;999.90;;
7239;SDS011;3661;53.288;10.458;2023-09-08T06:24:27;1680.05;;;999.90;;
7239;SDS011;3661;53.288;10.458;2023-09-08T06:27:03;1679.30;;;999.90;;
7239;SDS011;3661;53.288;10.458;2023-09-08T06:29:35;1695.85;;;999.90;;
7239;SDS011;3661;53.288;10.458;2023-09-08T06:32:08;1698.88;;;999.90;;
7239;SDS011;3661;53.288;10.458;2023-09-08T06:34:41;1701.68;;;999.90;;
7239;SDS011;3661;53.288;10.458;2023-09-08T06:37:13;1709.30;;;999.90;;
7239;SDS011;3661;53.288;10.458;2023-09-08T06:39:45;1728.67;;;999.90;;
7239;SDS011;3661;53.288;10.458;2023-09-08T06:42:17;1708.47;;;999.90;;
7239;SDS011;3661;53.288;10.458;2023-09-08T06:44:49;1713.68;;;999.90;;
7239;SDS011;3661;53.288;10.458;2023-09-08T06:47:22;1741.28;;;999.90;;
7239;SDS011;3661;53.288;10.458;2023-09-08T06:49:55;1736.63;;;999.90;;
7239;SDS011;3661;53.288;10.458;2023-09-08T06:52:27;1743.72;;;999.90;;
7239;SDS011;3661;53.288;10.458;2023-09-08T06:55:00;1744.78;;;999.90;;
7239;SDS011;3661;53.288;10.458;2023-09-08T06:57:33;1752.40;;;999.90;;
7239;SDS011;3661;53.288;10.458;2023-09-08T07:00:06;1762.37;;;999.90;;
7239;SDS011;3661;53.288;10.458;2023-09-08T07:02:40;1748.18;;;999.90;;
7239;SDS011;3661;53.288;10.458;2023-09-08T07:05:13;1764.82;;;999.90;;
7239;SDS011;3661;53.288;10.458;2023-09-08T07:07:47;1784.15;;;999.90;;
7239;SDS011;3661;53.288;10.458;2023-09-08T07:13:46;1781.93;;;999.90;;
7239;SDS011;3661;53.288;10.458;2023-09-08T07:16:19;1799.93;;;999.90;;
7239;SDS011;3661;53.288;10.458;2023-09-08T07:18:53;1807.75;;;999.90;;
7239;SDS011;3661;53.288;10.458;2023-09-08T07:21:25;1798.68;;;999.90;;
7239;SDS011;3661;53.288;10.458;2023-09-08T07:23:58;1810.13;;;999.90;;
7239;SDS011;3661;53.288;10.458;2023-09-08T07:26:30;1816.10;;;999.90;;
7239;SDS011;3661;53.288;10.458;2023-09-08T07:29:03;1833.35;;;999.90;;
7239;SDS011;3661;53.288;10.458;2023-09-08T07:31:36;1831.47;;;999.90;;
7239;SDS011;3661;53.288;10.458;2023-09-08T07:34:10;1849.43;;;999.90;;
7239;SDS011;3661;53.288;10.458;2023-09-08T07:36:44;1848.65;;;999.90;;
7239;SDS011;3661;53.288;10.458;2023-09-08T07:39:18;1852.18;;;999.90;;
7239;SDS011;3661;53.288;10.458;2023-09-08T07:41:58;1863.25;;;999.90;;
7239;SDS011;3661;53.288;10.458;2023-09-08T07:44:32;1872.97;;;999.90;;
7239;SDS011;3661;53.288;10.458;2023-09-08T07:49:50;1882.95;;;999.90;;
7239;SDS011;3661;53.288;10.458;2023-09-08T07:52:25;1903.95;;;999.90;;
7239;SDS011;3661;53.288;10.458;2023-09-08T07:55:40;1919.85;;;999.90;;
7239;SDS011;3661;53.288;10.458;2023-09-08T08:05:10;1931.90;;;999.90;;
7239;SDS011;3661;53.288;10.458;2023-09-08T08:07:42;1951.32;;;999.90;;
7239;SDS011;3661;53.288;10.458;2023-09-08T08:10:15;1937.75;;;999.90;;
7239;SDS011;3661;53.288;10.458;2023-09-08T08:12:47;1956.53;;;999.90;;
7239;SDS011;3661;53.288;10.458;2023-09-08T08:15:22;1947.03;;;999.90;;
7239;SDS011;3661;53.288;10.458;2023-09-08T08:18:05;1960.53;;;999.90;;
7239;SDS011;3661;53.288;10.458;2023-09-08T08:20:41;1975.85;;;999.90;;
7239;SDS011;3661;53.288;10.458;2023-09-08T08:23:13;1977.38;;;999.90;;
7239;SDS011;3661;53.288;10.458;2023-09-08T08:25:45;1999.90;;;999.90;;
7239;SDS011;3661;53.288;10.458;2023-09-08T08:28:17;1998.55;;;999.90;;
7239;SDS011;3661;53.288;10.458;2023-09-08T08:30:50;1999.90;;;999.90;;
7239;SDS011;3661;53.288;10.458;2023-09-08T08:33:22;1999.90;;;999.90;;
7239;SDS011;3661;53.288;10.458;2023-09-08T08:35:57;1999.90;;;999.90;;
7239;SDS011;3661;53.288;10.458;2023-09-08T08:38:29;1999.90;;;999.90;;
7239;SDS011;3661;53.288;10.458;2023-09-08T08:41:02;1999.90;;;999.90;;
7239;SDS011;3661;53.288;10.458;2023-09-08T08:43:34;1999.90;;;999.90;;
7239;SDS011;3661;53.288;10.458;2023-09-08T08:46:07;1999.90;;;999.90;;
7239;SDS011;3661;53.288;10.458;2023-09-08T08:48:39;1999.90;;;999.90;;
7239;SDS011;3661;53.288;10.458;2023-09-08T08:51:14;1999.90;;;999.90;;
7239;SDS011;3661;53.288;10.458;2023-09-08T08:53:50;1999.90;;;999.90;;
7239;SDS011;3661;53.288;10.458;2023-09-08T08:56:22;1999.90;;;999.90;;
7239;SDS011;3661;53.288;10.458;2023-09-08T08:58:54;1999.90;;;999.90;;
7239;SDS011;3661;53.288;10.458;2023-09-08T09:01:28;1999.90;;;999.90;;
7239;SDS011;3661;53.288;10.458;2023-09-08T09:04:03;1999.90;;;999.90;;
7239;SDS011;3661;53.288;10.458;2023-09-08T09:06:39;1999.90;;;999.90;;
7239;SDS011;3661;53.288;10.458;2023-09-08T09:09:11;1999.90;;;999.90;;
7239;SDS011;3661;53.288;10.458;2023-09-08T09:11:43;1999.90;;;999.90;;
7239;SDS011;3661;53.288;10.458;2023-09-08T09:14:15;1999.90;;;999.90;;
7239;SDS011;3661;53.288;10.458;2023-09-08T09:16:51;1999.90;;;999.90;;
7239;SDS011;3661;53.288;10.458;2023-09-08T09:19:27;1999.90;;;999.90;;
7239;SDS011;3661;53.288;10.458;2023-09-08T09:22:03;1999.90;;;999.90;;
7239;SDS011;3661;53.288;10.458;2023-09-08T09:24:35;1999.90;;;999.90;;
7239;SDS011;3661;53.288;10.458;2023-09-08T09:27:11;1999.90;;;999.90;;
7239;SDS011;3661;53.288;10.458;2023-09-08T09:29:45;1999.90;;;999.90;;
7239;SDS011;3661;53.288;10.458;2023-09-08T09:32:22;1999.90;;;999.90;;
7239;SDS011;3661;53.288;10.458;2023-09-08T09:34:56;1999.90;;;999.90;;
7239;SDS011;3661;53.288;10.458;2023-09-08T09:37:32;1999.90;;;999.90;;
7239;SDS011;3661;53.288;10.458;2023-09-08T09:40:06;1999.90;;;999.90;;
7239;SDS011;3661;53.288;10.458;2023-09-08T09:42:40;1999.90;;;999.90;;
7239;SDS011;3661;53.288;10.458;2023-09-08T09:45:13;1999.90;;;999.90;;
7239;SDS011;3661;53.288;10.458;2023-09-08T09:47:46;1999.90;;;999.90;;
7239;SDS011;3661;53.288;10.458;2023-09-08T09:50:26;1999.90;;;999.90;;
7239;SDS011;3661;53.288;10.458;2023-09-08T09:53:02;1999.90;;;999.90;;
7239;SDS011;3661;53.288;10.458;2023-09-08T09:55:40;1999.90;;;999.90;;
7239;SDS011;3661;53.288;10.458;2023-09-08T09:58:12;1999.90;;;999.90;;
7239;SDS011;3661;53.288;10.458;2023-09-08T10:00:46;1999.90;;;999.90;;
7239;SDS011;3661;53.288;10.458;2023-09-08T10:03:20;1999.90;;;999.90;;
7239;SDS011;3661;53.288;10.458;2023-09-08T10:05:56;1999.90;;;999.90;;
7239;SDS011;3661;53.288;10.458;2023-09-08T10:08:30;1999.90;;;999.90;;
7239;SDS011;3661;53.288;10.458;2023-09-08T10:11:07;1999.90;;;999.90;;
7239;SDS011;3661;53.288;10.458;2023-09-08T10:13:41;1999.90;;;999.90;;
7239;SDS011;3661;53.288;10.458;2023-09-08T10:16:18;1999.90;;;999.90;;
7239;SDS011;3661;53.288;10.458;2023-09-08T10:18:52;1999.90;;;999.90;;
7239;SDS011;3661;53.288;10.458;2023-09-08T10:21:28;1999.90;;;999.90;;
7239;SDS011;3661;53.288;10.458;2023-09-08T10:24:12;1999.90;;;999.90;;
7239;SDS011;3661;53.288;10.458;2023-09-08T10:26:58;1999.90;;;999.90;;
7239;SDS011;3661;53.288;10.458;2023-09-08T10:29:32;1999.90;;;999.90;;
7239;SDS011;3661;53.288;10.458;2023-09-08T10:32:06;1999.90;;;999.90;;
7239;SDS011;3661;53.288;10.458;2023-09-08T10:34:40;1999.90;;;999.90;;
7239;SDS011;3661;53.288;10.458;2023-09-08T10:37:19;1999.90;;;999.90;;
7239;SDS011;3661;53.288;10.458;2023-09-08T10:39:55;1999.90;;;999.90;;
7239;SDS011;3661;53.288;10.458;2023-09-08T10:42:48;1999.90;;;999.90;;
7239;SDS011;3661;53.288;10.458;2023-09-08T10:45:20;1999.90;;;999.90;;
7239;SDS011;3661;53.288;10.458;2023-09-08T10:47:56;1999.90;;;999.90;;
7239;SDS011;3661;53.288;10.458;2023-09-08T10:50:32;1999.90;;;999.90;;
7239;SDS011;3661;53.288;10.458;2023-09-08T10:53:08;1999.90;;;999.90;;
7239;SDS011;3661;53.288;10.458;2023-09-08T10:55:52;1999.90;;;999.90;;
7239;SDS011;3661;53.288;10.458;2023-09-08T10:58:31;1999.90;;;999.90;;
7239;SDS011;3661;53.288;10.458;2023-09-08T11:01:06;1999.90;;;999.90;;
7239;SDS011;3661;53.288;10.458;2023-09-08T11:03:45;1999.90;;;999.90;;
7239;SDS011;3661;53.288;10.458;2023-09-08T11:06:22;1999.90;;;999.90;;
7239;SDS011;3661;53.288;10.458;2023-09-08T11:09:05;1999.90;;;999.90;;
7239;SDS011;3661;53.288;10.458;2023-09-08T11:11:40;1999.90;;;999.90;;
7239;SDS011;3661;53.288;10.458;2023-09-08T11:14:15;1999.90;;;999.90;;
7239;SDS011;3661;53.288;10.458;2023-09-08T11:16:48;1999.90;;;999.90;;
7239;SDS011;3661;53.288;10.458;2023-09-08T11:19:21;1999.90;;;999.90;;
7239;SDS011;3661;53.288;10.458;2023-09-08T11:21:53;1999.90;;;999.90;;
7239;SDS011;3661;53.288;10.458;2023-09-08T11:24:25;1999.90;;;999.90;;
7239;SDS011;3661;53.288;10.458;2023-09-08T11:26:59;1999.90;;;999.90;;
7239;SDS011;3661;53.288;10.458;2023-09-08T11:29:31;1999.90;;;999.90;;
7239;SDS011;3661;53.288;10.458;2023-09-08T11:32:05;1999.90;;;999.90;;
7239;SDS011;3661;53.288;10.458;2023-09-08T11:34:37;1999.90;;;999.90;;
7239;SDS011;3661;53.288;10.458;2023-09-08T11:37:11;1999.90;;;999.90;;
7239;SDS011;3661;53.288;10.458;2023-09-08T11:39:46;1999.90;;;999.90;;
7239;SDS011;3661;53.288;10.458;2023-09-08T11:42:20;1999.90;;;999.90;;
7239;SDS011;3661;53.288;10.458;2023-09-08T11:44:56;1999.90;;;999.90;;
7239;SDS011;3661;53.288;10.458;2023-09-08T11:47:33;1999.90;;;999.90;;
7239;SDS011;3661;53.288;10.458;2023-09-08T11:50:07;1999.90;;;999.90;;
7239;SDS011;3661;53.288;10.458;2023-09-08T11:52:43;1999.90;;;999.90;;
7239;SDS011;3661;53.288;10.458;2023-09-08T11:55:15;1999.90;;;999.90;;
7239;SDS011;3661;53.288;10.458;2023-09-08T11:57:51;1999.90;;;999.90;;
7239;SDS011;3661;53.288;10.458;2023-09-08T12:00:36;1999.90;;;999.90;;
7239;SDS011;3661;53.288;10.458;2023-09-08T12:03:09;1999.90;;;999.90;;
7239;SDS011;3661;53.288;10.458;2023-09-08T12:05:44;1999.90;;;999.90;;
7239;SDS011;3661;53.288;10.458;2023-09-08T12:12:09;1999.90;;;999.90;;
7239;SDS011;3661;53.288;10.458;2023-09-08T12:14:45;1999.90;;;999.90;;
7239;SDS011;3661;53.288;10.458;2023-09-08T12:17:17;1999.90;;;999.90;;
7239;SDS011;3661;53.288;10.458;2023-09-08T12:19:54;1999.90;;;999.90;;
7239;SDS011;3661;53.288;10.458;2023-09-08T12:22:27;1999.90;;;999.90;;
7239;SDS011;3661;53.288;10.458;2023-09-08T12:25:07;1999.90;;;999.90;;
7239;SDS011;3661;53.288;10.458;2023-09-08T12:27:41;1999.90;;;999.90;;
7239;SDS011;3661;53.288;10.458;2023-09-08T12:30:18;1999.90;;;999.90;;
7239;SDS011;3661;53.288;10.458;2023-09-08T12:33:00;1999.90;;;999.90;;
7239;SDS011;3661;53.288;10.458;2023-09-08T12:35:33;1999.90;;;999.90;;
7239;SDS011;3661;53.288;10.458;2023-09-08T12:38:06;1999.90;;;999.90;;
7239;SDS011;3661;53.288;10.458;2023-09-08T12:40:38;1999.90;;;999.90;;
7239;SDS011;3661;53.288;10.458;2023-09-08T12:43:11;1999.90;;;999.90;;
7239;SDS011;3661;53.288;10.458;2023-09-08T12:45:44;1999.90;;;999.90;;
7239;SDS011;3661;53.288;10.458;2023-09-08T12:48:17;1999.90;;;999.90;;
7239;SDS011;3661;53.288;10.458;2023-09-08T12:50:49;1999.90;;;999.90;;
7239;SDS011;3661;53.288;10.458;2023-09-08T12:53:21;1999.90;;;999.90;;
7239;SDS011;3661;53.288;10.458;2023-09-08T12:55:55;1999.90;;;999.90;;
7239;SDS011;3661;53.288;10.458;2023-09-08T12:58:29;1999.90;;;999.90;;
7239;SDS011;3661;53.288;10.458;2023-09-08T13:01:03;1999.90;;;999.90;;
7239;SDS011;3661;53.288;10.458;2023-09-08T13:03:37;1999.90;;;999.90;;
7239;SDS011;3661;53.288;10.458;2023-09-08T13:06:09;1999.90;;;999.90;;
7239;SDS011;3661;53.288;10.458;2023-09-08T13:08:41;1999.90;;;999.90;;
7239;SDS011;3661;53.288;10.458;2023-09-08T13:11:14;1999.90;;;999.90;;
7239;SDS011;3661;53.288;10.458;2023-09-08T13:13:46;1999.90;;;999.90;;
7239;SDS011;3661;53.288;10.458;2023-09-08T13:16:20;1999.90;;;999.90;;
7239;SDS011;3661;53.288;10.458;2023-09-08T13:18:52;1999.90;;;999.90;;
7239;SDS011;3661;53.288;10.458;2023-09-08T13:21:25;1999.90;;;999.90;;
7239;SDS011;3661;53.288;10.458;2023-09-08T13:23:57;1999.90;;;999.90;;
7239;SDS011;3661;53.288;10.458;2023-09-08T13:26:30;1999.90;;;999.90;;
7239;SDS011;3661;53.288;10.458;2023-09-08T13:29:05;1999.90;;;999.90;;
7239;SDS011;3661;53.288;10.458;2023-09-08T13:31:41;1999.90;;;999.90;;
7239;SDS011;3661;53.288;10.458;2023-09-08T13:34:19;1999.90;;;999.90;;
7239;SDS011;3661;53.288;10.458;2023-09-08T13:36:52;1999.90;;;999.90;;
7239;SDS011;3661;53.288;10.458;2023-09-08T13:39:24;1999.90;;;999.90;;
7239;SDS011;3661;53.288;10.458;2023-09-08T13:41:58;1999.90;;;999.90;;
7239;SDS011;3661;53.288;10.458;2023-09-08T13:44:32;1999.90;;;999.90;;
7239;SDS011;3661;53.288;10.458;2023-09-08T13:47:09;1999.90;;;999.90;;
7239;SDS011;3661;53.288;10.458;2023-09-08T13:49:41;1999.90;;;999.90;;
7239;SDS011;3661;53.288;10.458;2023-09-08T13:52:15;1999.90;;;999.90;;
7239;SDS011;3661;53.288;10.458;2023-09-08T13:57:56;1999.90;;;999.90;;
7239;SDS011;3661;53.288;10.458;2023-09-08T14:00:28;1999.90;;;999.90;;
7239;SDS011;3661;53.288;10.458;2023-09-08T14:03:02;1999.90;;;999.90;;
7239;SDS011;3661;53.288;10.458;2023-09-08T14:05:34;1999.90;;;999.90;;
7239;SDS011;3661;53.288;10.458;2023-09-08T14:08:06;1999.90;;;999.90;;
7239;SDS011;3661;53.288;10.458;2023-09-08T14:10:38;1999.90;;;999.90;;
7239;SDS011;3661;53.288;10.458;2023-09-08T14:13:10;1999.90;;;999.90;;
7239;SDS011;3661;53.288;10.458;2023-09-08T14:15:43;1999.90;;;999.90;;
7239;SDS011;3661;53.288;10.458;2023-09-08T14:18:16;1999.90;;;999.90;;
7239;SDS011;3661;53.288;10.458;2023-09-08T14:20:48;1999.90;;;999.90;;
7239;SDS011;3661;53.288;10.458;2023-09-08T14:23:20;1999.90;;;999.90;;
7239;SDS011;3661;53.288;10.458;2023-09-08T14:25:52;1999.90;;;999.90;;
7239;SDS011;3661;53.288;10.458;2023-09-08T14:28:25;1999.90;;;999.90;;
7239;SDS011;3661;53.288;10.458;2023-09-08T14:30:57;1999.90;;;999.90;;
7239;SDS011;3661;53.288;10.458;2023-09-08T14:33:32;1999.90;;;999.90;;
7239;SDS011;3661;53.288;10.458;2023-09-08T14:36:06;1999.90;;;999.90;;
7239;SDS011;3661;53.288;10.458;2023-09-08T14:38:39;1999.90;;;999.90;;
7239;SDS011;3661;53.288;10.458;2023-09-08T14:41:11;1999.90;;;999.90;;
7239;SDS011;3661;53.288;10.458;2023-09-08T14:43:46;1999.90;;;999.90;;
7239;SDS011;3661;53.288;10.458;2023-09-08T14:46:18;1999.90;;;999.90;;
7239;SDS011;3661;53.288;10.458;2023-09-08T14:48:56;1999.90;;;999.90;;
7239;SDS011;3661;53.288;10.458;2023-09-08T14:51:29;1999.90;;;999.90;;
7239;SDS011;3661;53.288;10.458;2023-09-08T14:54:01;1999.90;;;999.90;;